This is the latest recevied weather packets stored in our database for station/object K5WRW-WX. If no packets are shown the sender has not sent any weather packets the latest 10 day(s).
| Time | Temp. | Humidity | Pressure | Rain* | Wind** | Luminosity | Snow |
|---|---|---|---|---|---|---|---|
| 1777765517 | 23.33° C | 44% | 1017.1 hPa | 0 mm | - | - | - |
| 1777762517 | 25° C | 40% | 1017.4 hPa | 0 mm | - | - | - |
| 1777758317 | 24.44° C | 39% | 1017.9 hPa | 0 mm | - | - | - |
| 1777757717 | 23.89° C | 39% | 1017.9 hPa | 0 mm | - | - | - |
| 1777756516 | 24.44° C | 38% | 1018.2 hPa | 0 mm | - | - | - |
| 1777753516 | 23.89° C | 38% | 1018.9 hPa | 0 mm | - | - | - |
| 1777752317 | 23.89° C | 38% | 1019.1 hPa | 0 mm | - | - | - |
| 1777749936 | 22.78° C | 39% | 1019.5 hPa | 0 mm | - | - | - |
| 1777749316 | 22.78° C | 37% | 1019.6 hPa | 0 mm | - | - | - |
| 1777742116 | 21.67° C | 40% | 1021.1 hPa | 0 mm | - | - | - |
| 1777741516 | 20.56° C | 41% | 1021.1 hPa | 0 mm | - | - | - |
| 1777740916 | 20.56° C | 42% | 1021.1 hPa | 0 mm | - | - | - |
| 1777737316 | 20° C | 42% | 1021.1 hPa | 0 mm | - | - | - |
| 1777733116 | 17.22° C | 56% | 1021 hPa | 0 mm | - | - | - |
| 1777728915 | 14.44° C | 75% | 1020.5 hPa | 0 mm | - | - | - |
| 1777727115 | 13.33° C | 73% | 1019.9 hPa | 0 mm | - | - | - |
| 1777722917 | 11.11° C | 80% | 1018.8 hPa | 0 mm | - | - | - |
| 1777720517 | 11.67° C | 71% | 1018.6 hPa | 0 mm | - | - | - |
| 1777718737 | 11.67° C | 67% | 1018 hPa | 0 mm | - | - | - |
| 1777716317 | 11.67° C | 67% | 1018 hPa | 0 mm | - | - | - |
| 1777715717 | 11.11° C | 70% | 1017.9 hPa | 0 mm | - | - | - |
| 1777715137 | 11.11° C | 68% | 1017.8 hPa | 0 mm | - | - | - |
| 1777706117 | 13.89° C | 59% | 1017.8 hPa | 0 mm | - | - | - |
| 1777702516 | 14.44° C | 59% | 1017.9 hPa | 0 mm | - | - | - |
| 1777694116 | 16.11° C | 63% | 1017.7 hPa | 0 mm | - | - | - |
* Rain latest hour (hover to see other rain measurements)
** Current wind speed in m/s (hover to see current wind gust speed)